Time;durP1;ratioP1;P1;durP2;ratioP2;P2;SDS_P1;SDS_P2;PMS_P1;PMS_P2;Temp;Humidity;BMP_temperature;BMP_pressure;BME280_temperature;BME280_humidity;BME280_pressure;Samples;Min_cycle;Max_cycle;Signal;HPM_P1;HPM_P2
2023/09/16 00:00:19;;;;;;;5.72;3.00;;;15.70;99.90;;;;;;4997569;28;20038;-69
2023/09/16 00:03:05;;;;;;;4.40;2.80;;;15.70;99.90;;;;;;4991970;28;20546;-69
2023/09/16 00:05:51;;;;;;;5.57;2.53;;;15.70;99.90;;;;;;4977466;28;20056;-69
2023/09/16 00:08:37;;;;;;;4.78;2.83;;;15.70;99.90;;;;;;4968557;28;20053;-69
2023/09/16 00:11:25;;;;;;;7.32;3.08;;;15.70;99.90;;;;;;4970797;28;20046;-69
2023/09/16 00:14:11;;;;;;;5.18;3.45;;;15.60;99.90;;;;;;4975218;28;20034;-69
2023/09/16 00:17:00;;;;;;;6.65;2.72;;;15.60;99.90;;;;;;4992687;28;20046;-69
2023/09/16 00:19:46;;;;;;;8.18;3.10;;;15.60;99.90;;;;;;4969089;28;20566;-69
2023/09/16 00:22:32;;;;;;;7.80;3.33;;;15.60;99.90;;;;;;4979859;28;20038;-69
2023/09/16 00:25:18;;;;;;;5.13;2.80;;;15.60;99.90;;;;;;4972045;28;20487;-69
2023/09/16 00:28:06;;;;;;;5.43;2.90;;;15.60;99.90;;;;;;4972104;28;20050;-69
2023/09/16 00:30:52;;;;;;;5.30;2.92;;;15.50;99.90;;;;;;4985835;28;20471;-69
2023/09/16 00:33:39;;;;;;;5.22;3.05;;;15.50;99.90;;;;;;4984005;28;20048;-69
2023/09/16 00:36:25;;;;;;;6.30;3.58;;;15.50;99.90;;;;;;4989927;28;20093;-69
2023/09/16 00:39:11;;;;;;;6.97;3.45;;;15.50;99.90;;;;;;4996481;28;20595;-69
2023/09/16 00:41:57;;;;;;;9.90;3.85;;;15.40;99.90;;;;;;4996516;28;20042;-69
2023/09/16 00:44:43;;;;;;;7.28;3.10;;;15.50;99.90;;;;;;4988283;28;20046;-69
2023/09/16 00:47:29;;;;;;;5.43;3.60;;;15.40;99.90;;;;;;4997595;28;20470;-69
2023/09/16 00:50:17;;;;;;;6.95;3.42;;;15.40;99.90;;;;;;4994164;28;20121;-69
2023/09/16 00:53:03;;;;;;;6.20;3.47;;;15.40;99.90;;;;;;5001702;28;20033;-69
2023/09/16 00:55:49;;;;;;;5.57;3.80;;;15.40;99.90;;;;;;4998021;28;20038;-69
2023/09/16 00:58:35;;;;;;;7.35;3.47;;;15.40;99.90;;;;;;4992963;28;20049;-69
2023/09/16 01:01:23;;;;;;;6.68;3.53;;;15.30;99.90;;;;;;4990771;28;20107;-69
2023/09/16 01:04:09;;;;;;;5.28;3.60;;;15.30;99.90;;;;;;4986456;28;20049;-69
2023/09/16 01:06:55;;;;;;;6.00;3.60;;;15.20;99.90;;;;;;4984341;28;20096;-69
2023/09/16 01:09:41;;;;;;;7.13;3.67;;;15.20;99.90;;;;;;5008868;28;20578;-69
2023/09/16 01:12:27;;;;;;;8.57;3.70;;;15.20;99.90;;;;;;4986231;28;20065;-69
2023/09/16 01:15:14;;;;;;;6.68;3.83;;;15.20;99.90;;;;;;5000534;28;20053;-69
2023/09/16 01:18:19;;;;;;;9.13;3.70;;;15.20;99.90;;;;;;4978763;28;20153;-69
2023/09/16 01:21:05;;;;;;;6.88;3.75;;;15.10;99.90;;;;;;5003921;28;20046;-69
2023/09/16 01:24:20;;;;;;;6.45;4.13;;;15.10;99.90;;;;;;4995639;28;20104;-69
2023/09/16 01:27:07;;;;;;;8.82;4.20;;;15.00;99.90;;;;;;4999830;28;20056;-69
2023/09/16 01:29:53;;;;;;;6.18;4.15;;;15.00;99.90;;;;;;4968746;28;20045;-69
2023/09/16 01:33:00;;;;;;;6.28;4.35;;;15.00;99.90;;;;;;4984560;28;20049;-69
2023/09/16 01:35:48;;;;;;;7.32;3.75;;;15.00;99.90;;;;;;4981283;28;20041;-69
2023/09/16 01:38:34;;;;;;;;;;;15.00;99.90;;;;;;4988472;28;20100;-69
2023/09/16 01:41:20;;;;;;;8.43;3.90;;;15.00;99.90;;;;;;4993293;28;20227;-69
2023/09/16 01:44:06;;;;;;;7.15;4.20;;;14.90;99.90;;;;;;4987583;28;20157;-69
2023/09/16 01:46:55;;;;;;;6.57;4.65;;;14.90;99.90;;;;;;4999317;28;20039;-69
2023/09/16 01:49:41;;;;;;;6.30;3.85;;;14.90;99.90;;;;;;4996646;28;20042;-69
2023/09/16 01:52:27;;;;;;;6.55;3.90;;;14.90;99.90;;;;;;4995653;28;20046;-69
2023/09/16 01:55:13;;;;;;;7.95;4.00;;;14.90;99.90;;;;;;5009761;28;20501;-69
2023/09/16 01:57:59;;;;;;;7.00;4.13;;;14.90;99.90;;;;;;5000225;28;20050;-69
2023/09/16 02:00:45;;;;;;;8.32;4.15;;;14.90;99.90;;;;;;4998558;28;20118;-69
2023/09/16 02:03:31;;;;;;;9.07;4.65;;;14.90;99.90;;;;;;4985369;28;20046;-69
2023/09/16 02:06:16;;;;;;;8.65;4.18;;;14.90;99.90;;;;;;4982076;28;20038;-69
2023/09/16 02:09:03;;;;;;;5.63;4.15;;;14.90;99.90;;;;;;4994972;28;20046;-69
2023/09/16 02:11:49;;;;;;;9.05;4.78;;;14.90;99.90;;;;;;4997544;28;20492;-69
2023/09/16 02:14:38;;;;;;;8.75;4.18;;;14.90;99.90;;;;;;4982324;28;20042;-70
2023/09/16 02:17:25;;;;;;;5.25;3.97;;;14.80;99.90;;;;;;4990362;28;20054;-70
2023/09/16 02:20:11;;;;;;;5.80;4.28;;;14.80;99.90;;;;;;5024424;28;20041;-70
2023/09/16 02:22:57;;;;;;;7.60;4.07;;;14.70;99.90;;;;;;5021501;28;20381;-70
2023/09/16 02:25:43;;;;;;;6.60;4.35;;;14.70;99.90;;;;;;5040930;28;20033;-70
2023/09/16 02:28:29;;;;;;;6.93;4.47;;;14.70;99.90;;;;;;5035753;28;20044;-71
2023/09/16 02:31:15;;;;;;;7.80;4.93;;;14.70;99.90;;;;;;5044051;28;20041;-70
2023/09/16 02:34:02;;;;;;;6.55;4.40;;;14.70;99.90;;;;;;5028310;28;20041;-70
2023/09/16 02:36:48;;;;;;;7.40;4.20;;;14.70;99.90;;;;;;5009089;28;20398;-71
2023/09/16 02:39:34;;;;;;;10.38;4.45;;;14.60;99.90;;;;;;5041468;28;20038;-70
2023/09/16 02:42:20;;;;;;;5.05;4.10;;;14.60;99.90;;;;;;5044286;28;20365;-70
2023/09/16 02:45:06;;;;;;;9.15;4.63;;;14.60;99.90;;;;;;5049268;28;20041;-70
2023/09/16 02:47:54;;;;;;;7.78;4.93;;;14.50;99.90;;;;;;5036606;28;20099;-70
2023/09/16 02:50:40;;;;;;;7.05;4.20;;;14.50;99.90;;;;;;5035620;28;20102;-70
2023/09/16 02:53:25;;;;;;;6.82;4.40;;;14.50;99.90;;;;;;5051452;28;20040;-70
2023/09/16 02:56:11;;;;;;;7.22;4.53;;;14.50;99.90;;;;;;5023461;28;20033;-70
2023/09/16 02:58:57;;;;;;;8.15;4.57;;;14.50;99.90;;;;;;5022929;28;20048;-70
2023/09/16 03:01:45;;;;;;;10.05;6.05;;;14.40;99.90;;;;;;4986381;28;20041;-70
2023/09/16 03:04:31;;;;;;;10.13;6.90;;;14.40;99.90;;;;;;5035578;28;20040;-70
2023/09/16 03:07:16;;;;;;;7.72;5.53;;;14.50;99.90;;;;;;5038272;28;20046;-70
2023/09/16 03:10:03;;;;;;;10.38;6.07;;;14.50;99.90;;;;;;5030932;28;20041;-71
2023/09/16 03:12:49;;;;;;;8.40;6.22;;;14.50;99.90;;;;;;5015854;28;20046;-71
2023/09/16 03:15:36;;;;;;;10.18;6.43;;;14.60;99.90;;;;;;5000203;28;20141;-71
2023/09/16 03:18:22;;;;;;;12.38;6.63;;;14.60;99.90;;;;;;5020450;28;20072;-71
2023/09/16 03:21:07;;;;;;;10.52;6.03;;;14.60;99.90;;;;;;5016561;28;20037;-70
2023/09/16 03:23:53;;;;;;;10.68;5.95;;;14.60;99.90;;;;;;5014846;28;20078;-70
2023/09/16 03:26:39;;;;;;;8.10;6.30;;;14.70;99.90;;;;;;5036883;28;20072;-70
2023/09/16 03:29:26;;;;;;;8.45;6.07;;;14.70;99.90;;;;;;5002690;28;20365;-70
2023/09/16 03:32:11;;;;;;;8.55;6.05;;;14.70;99.90;;;;;;5029905;28;20053;-70
2023/09/16 03:34:57;;;;;;;9.50;6.25;;;14.60;99.90;;;;;;5044259;28;20481;-70
2023/09/16 03:37:45;;;;;;;11.13;5.97;;;14.70;99.90;;;;;;5011603;28;20423;-71
2023/09/16 03:40:32;;;;;;;9.60;5.97;;;14.70;99.90;;;;;;5031251;28;20060;-70
2023/09/16 03:43:18;;;;;;;9.23;5.90;;;14.60;99.90;;;;;;5022589;28;20048;-70
2023/09/16 03:46:05;;;;;;;10.10;6.68;;;14.60;99.90;;;;;;5020451;28;20694;-71
2023/09/16 03:48:51;;;;;;;7.78;5.60;;;14.70;99.90;;;;;;5035234;28;20053;-70
2023/09/16 03:51:37;;;;;;;9.80;6.13;;;14.70;99.90;;;;;;5007718;28;20110;-70
2023/09/16 03:54:23;;;;;;;11.25;5.97;;;14.70;99.90;;;;;;5035888;28;20339;-70
2023/09/16 03:57:10;;;;;;;9.80;6.55;;;14.60;99.90;;;;;;5026217;28;20065;-71
2023/09/16 03:59:56;;;;;;;8.60;6.63;;;14.60;99.90;;;;;;5023533;28;20037;-70
2023/09/16 04:02:42;;;;;;;7.22;5.70;;;14.60;99.90;;;;;;5018181;28;20124;-70
2023/09/16 04:05:28;;;;;;;12.27;5.85;;;14.60;99.90;;;;;;5036145;28;20076;-70
2023/09/16 04:08:14;;;;;;;9.10;6.28;;;14.60;99.90;;;;;;5039313;28;20068;-71
2023/09/16 04:10:59;;;;;;;9.20;6.53;;;14.60;99.90;;;;;;5033087;28;20519;-70
2023/09/16 04:13:45;;;;;;;9.52;6.40;;;14.50;99.90;;;;;;5020466;28;20096;-70
2023/09/16 04:16:33;;;;;;;9.48;6.60;;;14.60;99.90;;;;;;5010258;28;20367;-71
2023/09/16 04:19:19;;;;;;;8.95;5.82;;;14.60;99.90;;;;;;5021989;28;20041;-71
2023/09/16 04:22:06;;;;;;;9.68;6.45;;;14.50;99.90;;;;;;5022767;28;20051;-71
2023/09/16 04:24:53;;;;;;;11.07;6.60;;;14.50;99.90;;;;;;5032629;28;20045;-71
2023/09/16 04:27:39;;;;;;;9.18;5.47;;;14.50;99.90;;;;;;5030522;28;20549;-71
2023/09/16 04:30:26;;;;;;;7.00;5.95;;;14.40;99.90;;;;;;5017877;28;20052;-71
2023/09/16 04:33:13;;;;;;;9.35;6.50;;;14.50;99.90;;;;;;5048467;28;20075;-70
2023/09/16 04:36:00;;;;;;;8.73;5.75;;;14.40;99.90;;;;;;5035737;28;20042;-70
2023/09/16 04:38:46;;;;;;;10.37;5.90;;;14.40;99.90;;;;;;5006958;28;20044;-70
2023/09/16 04:41:32;;;;;;;8.32;5.20;;;14.40;99.90;;;;;;5050449;28;20091;-70
2023/09/16 04:44:21;;;;;;;7.53;5.38;;;14.30;99.90;;;;;;5037787;28;20041;-70
2023/09/16 04:47:07;;;;;;;7.20;4.93;;;14.30;99.90;;;;;;5041300;28;20037;-70
2023/09/16 04:49:54;;;;;;;9.30;5.80;;;14.30;99.90;;;;;;5045009;28;20549;-70
2023/09/16 04:52:41;;;;;;;7.75;4.75;;;14.20;99.90;;;;;;5008461;28;20135;-71
2023/09/16 04:55:28;;;;;;;8.53;5.40;;;14.20;99.90;;;;;;4994855;28;20183;-71
2023/09/16 04:58:15;;;;;;;9.10;4.60;;;14.20;99.90;;;;;;5014313;28;20098;-70
2023/09/16 05:01:04;;;;;;;7.72;5.18;;;14.10;99.90;;;;;;5034891;28;20057;-70
2023/09/16 05:03:50;;;;;;;8.15;4.85;;;14.10;99.90;;;;;;5024382;28;20038;-70
2023/09/16 05:06:38;;;;;;;9.82;4.72;;;14.10;99.90;;;;;;5008128;28;20052;-71
2023/09/16 05:09:26;;;;;;;6.72;5.13;;;14.10;99.90;;;;;;5019315;28;20137;-70
2023/09/16 05:12:12;;;;;;;7.68;5.28;;;14.00;99.90;;;;;;5024036;28;20120;-70
2023/09/16 05:14:58;;;;;;;12.10;5.50;;;14.00;99.90;;;;;;5014186;28;20041;-70
2023/09/16 05:17:44;;;;;;;7.05;5.35;;;14.00;99.90;;;;;;4998967;28;20474;-71
2023/09/16 05:20:31;;;;;;;9.02;4.90;;;14.00;99.90;;;;;;5005524;28;20052;-71
2023/09/16 05:23:17;;;;;;;8.25;5.95;;;13.90;99.90;;;;;;4999601;28;20120;-70
2023/09/16 05:26:09;;;;;;;8.23;5.88;;;13.90;99.90;;;;;;5013100;28;20143;-70
2023/09/16 05:28:56;;;;;;;8.88;5.88;;;13.90;99.90;;;;;;4990322;28;20037;-70
2023/09/16 05:31:42;;;;;;;11.87;5.50;;;13.90;99.90;;;;;;5033328;28;20689;-71
2023/09/16 05:34:28;;;;;;;10.10;5.25;;;13.90;99.90;;;;;;5031432;28;20039;-70
2023/09/16 05:37:14;;;;;;;8.90;5.22;;;13.90;99.90;;;;;;5029430;28;20472;-71
2023/09/16 05:40:00;;;;;;;7.28;5.30;;;13.90;99.90;;;;;;5031488;28;20492;-71
2023/09/16 05:42:47;;;;;;;8.88;5.47;;;13.90;99.90;;;;;;5012526;28;20124;-71
2023/09/16 05:45:33;;;;;;;9.87;6.20;;;13.90;99.90;;;;;;5000367;28;20049;-71
2023/09/16 05:48:20;;;;;;;7.45;5.50;;;13.90;99.90;;;;;;5005872;28;20668;-71
2023/09/16 05:51:08;;;;;;;8.55;5.78;;;14.00;99.90;;;;;;5000755;28;20049;-71
2023/09/16 05:53:54;;;;;;;;;;;14.00;99.90;;;;;;5024195;28;20034;-71
2023/09/16 05:56:42;;;;;;;11.63;7.35;;;14.10;99.90;;;;;;5005090;28;19966;-71
2023/09/16 05:59:28;;;;;;;9.27;7.90;;;14.10;99.90;;;;;;5000705;28;20043;-71
2023/09/16 06:02:15;;;;;;;9.25;6.85;;;14.10;99.90;;;;;;5041120;28;20136;-71
2023/09/16 06:05:01;;;;;;;15.02;7.85;;;14.10;99.90;;;;;;5018686;28;20042;-71
2023/09/16 06:07:47;;;;;;;11.13;7.30;;;14.20;99.90;;;;;;5027178;28;20128;-71
2023/09/16 06:10:34;;;;;;;11.63;7.05;;;14.20;99.90;;;;;;5019241;28;20045;-71
2023/09/16 06:13:20;;;;;;;8.90;6.90;;;14.30;99.90;;;;;;5015329;28;20045;-71
2023/09/16 06:16:07;;;;;;;10.73;6.80;;;14.30;99.90;;;;;;4990795;28;20042;-71
2023/09/16 06:18:53;;;;;;;8.27;7.00;;;14.40;99.90;;;;;;5003185;28;20057;-71
2023/09/16 06:21:39;;;;;;;10.40;6.53;;;14.40;99.90;;;;;;5017457;28;20106;-71
2023/09/16 06:24:25;;;;;;;10.10;6.15;;;14.40;99.90;;;;;;5013618;28;20408;-71
2023/09/16 06:27:12;;;;;;;10.23;6.57;;;14.50;99.90;;;;;;5004646;28;20041;-71
2023/09/16 06:29:58;;;;;;;9.10;6.38;;;14.50;99.90;;;;;;5041259;28;20106;-71
2023/09/16 06:32:44;;;;;;;12.05;6.72;;;14.50;99.90;;;;;;5001751;28;20046;-71
2023/09/16 06:35:30;;;;;;;7.53;5.72;;;14.60;99.90;;;;;;5027487;28;20099;-70
2023/09/16 06:38:16;;;;;;;11.18;6.57;;;14.60;99.90;;;;;;5009093;28;20083;-71
2023/09/16 06:41:02;;;;;;;8.55;6.40;;;14.70;99.90;;;;;;5016320;28;20088;-71
2023/09/16 06:43:48;;;;;;;9.25;6.72;;;14.70;99.90;;;;;;5031753;28;20041;-71
2023/09/16 06:46:34;;;;;;;12.63;6.78;;;14.70;99.90;;;;;;4996754;28;20044;-71
2023/09/16 06:49:20;;;;;;;9.10;6.15;;;14.80;99.90;;;;;;5008989;28;20042;-71
2023/09/16 06:52:06;;;;;;;11.38;7.18;;;14.80;99.90;;;;;;4994129;28;20045;-71
2023/09/16 06:54:52;;;;;;;8.40;6.85;;;14.90;99.90;;;;;;5040815;28;20037;-71
2023/09/16 06:57:38;;;;;;;8.48;6.28;;;15.00;99.90;;;;;;5017500;28;20115;-71
2023/09/16 07:00:24;;;;;;;7.32;5.53;;;15.00;99.90;;;;;;5003877;28;20114;-71
2023/09/16 07:03:10;;;;;;;10.20;5.93;;;15.10;99.90;;;;;;5006151;28;20451;-71
2023/09/16 07:05:56;;;;;;;10.27;6.63;;;15.10;99.90;;;;;;5016184;28;20073;-71
2023/09/16 07:08:42;;;;;;;9.70;6.05;;;15.20;99.90;;;;;;5004090;28;20114;-71
2023/09/16 07:11:28;;;;;;;9.93;6.10;;;15.20;99.90;;;;;;5044965;28;20477;-71
2023/09/16 07:14:14;;;;;;;8.35;6.20;;;15.30;99.90;;;;;;5025675;28;20124;-71
2023/09/16 07:17:00;;;;;;;10.50;6.45;;;15.40;99.90;;;;;;5020736;28;20424;-71
2023/09/16 07:19:46;;;;;;;14.02;6.18;;;15.50;99.90;;;;;;5047484;28;20056;-72
2023/09/16 07:22:32;;;;;;;9.18;5.30;;;15.50;99.90;;;;;;5024767;28;20045;-71
2023/09/16 07:25:18;;;;;;;12.23;5.68;;;15.60;99.90;;;;;;5020661;28;20056;-71
2023/09/16 07:28:04;;;;;;;8.18;5.22;;;15.60;99.90;;;;;;5036513;28;20485;-71
2023/09/16 07:30:50;;;;;;;8.77;5.65;;;15.70;99.90;;;;;;5037463;28;20477;-71
2023/09/16 07:33:36;;;;;;;6.95;5.40;;;15.80;99.90;;;;;;5020724;28;20068;-71
2023/09/16 07:36:22;;;;;;;7.00;5.30;;;15.80;99.90;;;;;;5040689;28;20029;-71
2023/09/16 07:39:08;;;;;;;9.57;5.65;;;15.90;99.90;;;;;;5011322;28;20046;-71
2023/09/16 07:41:54;;;;;;;9.82;6.15;;;16.00;99.90;;;;;;5010219;28;20033;-71
2023/09/16 07:44:40;;;;;;;9.48;5.93;;;16.00;99.90;;;;;;5023043;28;20377;-71
2023/09/16 07:47:26;;;;;;;12.15;5.68;;;16.20;99.90;;;;;;5016994;28;20044;-71
2023/09/16 07:50:12;;;;;;;6.47;5.13;;;16.20;99.90;;;;;;5017887;28;20053;-71
2023/09/16 07:52:58;;;;;;;9.48;4.80;;;16.30;99.90;;;;;;5025213;28;20045;-71
2023/09/16 07:55:44;;;;;;;6.78;5.05;;;16.30;99.90;;;;;;5015494;28;20034;-71
2023/09/16 07:58:30;;;;;;;7.07;4.60;;;16.40;99.90;;;;;;5019423;28;20390;-71
2023/09/16 08:01:16;;;;;;;7.85;4.70;;;16.50;99.90;;;;;;5018933;28;20424;-71
2023/09/16 08:04:02;;;;;;;6.78;4.90;;;16.60;99.90;;;;;;5026438;28;20533;-71
2023/09/16 08:06:49;;;;;;;6.97;4.60;;;16.70;99.90;;;;;;5033612;28;20041;-71
2023/09/16 08:09:37;;;;;;;6.57;5.10;;;16.70;99.90;;;;;;5024466;28;20112;-71
2023/09/16 08:12:23;;;;;;;7.90;4.93;;;16.90;99.90;;;;;;5035217;28;20146;-71
2023/09/16 08:15:09;;;;;;;6.88;5.68;;;16.90;99.90;;;;;;5013477;28;20099;-71
2023/09/16 08:17:55;;;;;;;6.15;4.22;;;17.00;99.90;;;;;;5025196;28;20067;-71
2023/09/16 08:20:42;;;;;;;10.45;4.85;;;17.10;99.90;;;;;;5026486;28;20038;-72
2023/09/16 08:23:28;;;;;;;6.07;4.72;;;17.10;99.90;;;;;;5041046;28;20516;-72
2023/09/16 08:26:14;;;;;;;9.13;4.88;;;17.30;99.90;;;;;;5043034;28;20037;-71
2023/09/16 08:28:59;;;;;;;7.38;4.72;;;17.30;99.90;;;;;;5007652;28;20037;-72
2023/09/16 08:31:45;;;;;;;7.88;4.70;;;17.40;99.90;;;;;;5038359;28;20056;-72
2023/09/16 08:34:31;;;;;;;5.90;4.53;;;17.50;99.90;;;;;;5016020;28;20081;-72
2023/09/16 08:37:17;;;;;;;5.95;4.47;;;17.50;99.90;;;;;;4996888;28;20137;-71
2023/09/16 08:40:04;;;;;;;8.07;4.38;;;17.60;99.90;;;;;;5027325;28;20057;-72
2023/09/16 08:42:54;;;;;;;7.55;4.57;;;17.70;99.90;;;;;;5020378;28;20045;-72
2023/09/16 08:45:43;;;;;;;6.55;4.25;;;17.80;99.90;;;;;;5019124;28;20083;-71
2023/09/16 08:48:36;;;;;;;6.15;4.13;;;18.00;99.90;;;;;;5004920;28;20103;-71
2023/09/16 08:51:22;;;;;;;6.35;3.83;;;18.10;99.90;;;;;;5045074;28;20055;-72
2023/09/16 08:54:08;;;;;;;6.45;4.50;;;18.20;99.90;;;;;;5003554;28;20771;-72
2023/09/16 08:56:54;;;;;;;5.90;4.28;;;18.30;99.90;;;;;;5053579;28;20040;-72
2023/09/16 08:59:40;;;;;;;5.68;4.20;;;18.40;99.90;;;;;;5037389;28;20041;-72
2023/09/16 09:02:26;;;;;;;5.63;3.83;;;18.40;99.90;;;;;;5022164;28;20100;-72
2023/09/16 09:05:12;;;;;;;8.35;4.40;;;18.50;99.90;;;;;;5009780;28;20046;-72
2023/09/16 09:07:58;;;;;;;6.20;4.25;;;18.60;99.90;;;;;;5007141;28;20196;-72
2023/09/16 09:10:44;;;;;;;6.63;3.83;;;18.70;99.90;;;;;;5000024;28;20441;-71
2023/09/16 09:13:31;;;;;;;6.82;3.78;;;18.80;99.90;;;;;;5024528;28;20041;-72
2023/09/16 09:16:18;;;;;;;5.03;3.73;;;18.90;99.90;;;;;;4986407;28;20061;-72
2023/09/16 09:19:04;;;;;;;5.28;3.40;;;18.90;99.90;;;;;;5016044;28;20148;-71
2023/09/16 09:21:51;;;;;;;8.35;3.78;;;19.00;99.90;;;;;;4982247;28;20613;-71
2023/09/16 09:24:37;;;;;;;5.22;3.38;;;19.20;99.90;;;;;;4988164;28;20046;-71
2023/09/16 09:27:23;;;;;;;8.02;3.88;;;19.30;99.90;;;;;;5010935;28;20049;-71
2023/09/16 09:30:09;;;;;;;5.90;3.20;;;19.50;99.90;;;;;;5005159;28;20142;-71
2023/09/16 09:32:55;;;;;;;5.45;4.10;;;19.60;99.90;;;;;;4992216;28;20042;-71
2023/09/16 09:35:42;;;;;;;8.52;4.07;;;19.70;99.90;;;;;;4968218;28;20041;-71
2023/09/16 09:38:28;;;;;;;9.75;4.15;;;19.90;99.90;;;;;;5002292;28;20034;-71
2023/09/16 09:41:14;;;;;;;7.03;3.92;;;20.00;99.90;;;;;;4992193;28;20116;-71
2023/09/16 09:44:00;;;;;;;5.82;3.88;;;20.20;99.90;;;;;;4980503;28;20084;-71
2023/09/16 09:46:46;;;;;;;6.93;4.25;;;20.40;99.90;;;;;;4980131;28;20046;-71
2023/09/16 09:49:32;;;;;;;7.57;3.95;;;20.50;99.90;;;;;;4970431;28;20061;-71
2023/09/16 09:52:19;;;;;;;5.70;3.47;;;20.60;99.90;;;;;;5011171;28;20050;-72
2023/09/16 09:55:05;;;;;;;6.67;4.33;;;20.80;99.90;;;;;;4964147;28;20130;-71
2023/09/16 09:57:52;;;;;;;7.05;3.33;;;21.00;99.90;;;;;;4984198;28;20038;-71
2023/09/16 10:00:39;;;;;;;5.45;3.50;;;;;;;;;;4958432;28;20042;-71
2023/09/16 10:03:28;;;;;;;6.68;3.33;;;;;;;;;;4984759;28;20790;-71
2023/09/16 10:06:15;;;;;;;7.93;3.50;;;;;;;;;;4985389;28;20528;-71
2023/09/16 10:09:01;;;;;;;6.45;3.70;;;;;;;;;;4979265;28;20048;-71
2023/09/16 10:11:48;;;;;;;8.48;3.70;;;;;;;;;;4984394;28;20055;-71
2023/09/16 10:14:34;;;;;;;6.95;3.92;;;;;;;;;;4981678;28;20039;-71
2023/09/16 10:17:21;;;;;;;5.43;3.85;;;;;;;;;;4987161;28;20046;-71
2023/09/16 10:20:11;;;;;;;5.30;3.22;;;;;;;;;;5000768;28;20548;-71
2023/09/16 10:22:58;;;;;;;6.80;3.83;;;;;;;;;;5003027;28;20161;-72
2023/09/16 10:25:44;;;;;;;6.65;3.45;;;;;;;;;;5009557;28;20678;-71
2023/09/16 10:28:32;;;;;;;5.95;3.35;;;;;;;;;;5010450;28;20041;-71
2023/09/16 10:31:20;;;;;;;;;;;;;;;;;;5008324;28;20045;-71
2023/09/16 10:34:08;;;;;;;5.10;2.88;;;;;;;;;;5019634;28;19913;-71
2023/09/16 10:36:55;;;;;;;3.92;2.83;;;;;;;;;;5010241;28;20034;-71
2023/09/16 10:39:44;;;;;;;4.88;3.15;;;;;;;;;;5022246;28;20037;-71
2023/09/16 10:42:31;;;;;;;6.30;3.42;;;;;;;;;;5019504;28;20059;-71
2023/09/16 10:45:18;;;;;;;3.67;2.97;;;;;;;;;;5009935;28;20056;-71
2023/09/16 10:48:05;;;;;;;3.50;2.60;;;;;;;;;;5037071;28;20338;-71
2023/09/16 10:50:52;;;;;;;7.15;2.88;;;;;;;;;;5042926;28;20389;-71
2023/09/16 10:53:40;;;;;;;4.78;2.70;;;;;;;;;;5039286;28;20045;-71
2023/09/16 10:56:29;;;;;;;3.60;2.72;;;;;;;;;;5022204;28;20063;-71
2023/09/16 10:59:17;;;;;;;4.97;2.83;;;;;;;;;;5033952;28;20065;-71
2023/09/16 11:02:33;;;;;;;4.97;2.95;;;;;;;;;;5032504;28;20045;-71
2023/09/16 11:05:20;;;;;;;6.20;3.00;;;;;;;;;;5037357;28;20456;-71
2023/09/16 11:08:07;;;;;;;4.78;3.00;;;;;;;;;;5031891;28;20159;-71
2023/09/16 11:10:53;;;;;;;5.75;2.88;;;;;;;;;;5039302;28;20845;-71
2023/09/16 11:13:40;;;;;;;4.75;3.63;;;;;;;;;;5031986;28;20071;-71
2023/09/16 11:16:26;;;;;;;4.13;3.00;;;;;;;;;;5034923;28;20098;-72
2023/09/16 11:19:18;;;;;;;8.30;3.28;;;24.50;97.00;;;;;;5050500;28;20044;-70
2023/09/16 11:22:04;;;;;;;5.88;2.83;;;24.60;97.00;;;;;;4998871;28;20517;-70
2023/09/16 11:24:52;;;;;;;4.88;3.22;;;24.60;97.60;;;;;;5009025;28;20059;-70
2023/09/16 11:27:38;;;;;;;;;;;;;;;;;;5047624;28;20049;-71
2023/09/16 11:30:24;;;;;;;6.78;2.85;;;24.50;97.10;;;;;;5025157;28;19966;-69
2023/09/16 11:33:37;;;;;;;5.43;2.97;;;24.50;96.90;;;;;;5041490;28;20047;-73
2023/09/16 11:36:23;;;;;;;5.93;3.10;;;24.50;96.40;;;;;;5015805;28;20195;-73
2023/09/16 11:39:10;;;;;;;4.55;2.72;;;24.50;96.30;;;;;;5003658;28;20033;-73
2023/09/16 11:41:56;;;;;;;4.43;2.87;;;24.60;96.60;;;;;;5043676;28;20485;-74
2023/09/16 11:44:43;;;;;;;4.00;3.00;;;24.60;96.50;;;;;;5031248;28;20287;-74
2023/09/16 11:47:32;;;;;;;4.57;2.92;;;24.60;96.20;;;;;;5024771;28;20037;-73
2023/09/16 11:50:22;;;;;;;5.88;2.72;;;24.80;97.20;;;;;;5012724;28;20098;-74
2023/09/16 11:53:08;;;;;;;4.15;2.90;;;24.90;97.20;;;;;;5009901;28;20658;-74
2023/09/16 11:55:54;;;;;;;4.88;2.60;;;24.90;95.40;;;;;;5001681;28;20037;-74
2023/09/16 11:58:41;;;;;;;4.90;2.88;;;25.00;96.30;;;;;;5014890;28;20041;-74
2023/09/16 12:01:34;;;;;;;4.35;2.58;;;25.00;95.10;;;;;;4986003;28;20048;-74
2023/09/16 12:04:20;;;;;;;4.70;2.80;;;25.10;93.20;;;;;;5012347;28;20067;-73
2023/09/16 12:07:06;;;;;;;3.92;2.78;;;25.00;94.10;;;;;;5017034;28;20052;-74
2023/09/16 12:09:52;;;;;;;6.00;3.05;;;25.20;93.00;;;;;;5030308;28;20429;-73
2023/09/16 12:12:38;;;;;;;7.90;3.78;;;25.20;93.00;;;;;;5002009;28;20397;-74
2023/09/16 12:15:25;;;;;;;7.13;3.80;;;25.20;93.40;;;;;;5026938;28;20092;-74
2023/09/16 12:18:11;;;;;;;6.90;3.60;;;25.40;93.00;;;;;;5016083;28;20486;-74
2023/09/16 12:20:57;;;;;;;3.97;2.80;;;25.50;92.90;;;;;;5001789;28;20128;-74
2023/09/16 12:23:45;;;;;;;4.65;2.88;;;25.70;93.50;;;;;;4994358;28;20570;-74
2023/09/16 12:26:31;;;;;;;;;;;25.80;94.00;;;;;;5033751;28;20044;-74
2023/09/16 12:29:17;;;;;;;4.70;2.58;;;26.00;93.40;;;;;;5005693;28;20006;-74
2023/09/16 12:32:10;;;;;;;5.25;3.40;;;25.90;93.40;;;;;;5003916;28;20048;-74
2023/09/16 12:35:06;;;;;;;4.63;3.28;;;26.10;92.10;;;;;;5017140;28;20067;-73
2023/09/16 12:37:52;;;;;;;6.03;3.70;;;26.20;91.40;;;;;;4988484;28;20183;-73
2023/09/16 12:40:38;;;;;;;3.92;3.08;;;26.40;91.90;;;;;;5015953;28;20060;-74
2023/09/16 12:43:24;;;;;;;5.13;3.15;;;26.50;90.80;;;;;;5000927;28;20454;-75
2023/09/16 12:46:09;;;;;;;5.60;2.95;;;26.70;90.20;;;;;;5017349;28;20076;-74
2023/09/16 12:48:55;;;;;;;4.50;3.28;;;26.80;90.50;;;;;;5018721;28;20052;-74
2023/09/16 12:51:41;;;;;;;5.15;2.90;;;27.10;90.60;;;;;;5007887;28;20107;-74
2023/09/16 12:54:31;;;;;;;4.63;2.50;;;27.30;90.00;;;;;;5014515;28;20042;-74
2023/09/16 12:57:19;;;;;;;5.90;2.75;;;27.40;89.50;;;;;;5015384;28;20123;-74
2023/09/16 13:00:08;;;;;;;7.60;3.42;;;27.30;90.00;;;;;;4997805;28;20381;-74
2023/09/16 13:02:54;;;;;;;5.53;2.60;;;27.60;89.90;;;;;;5046153;28;20203;-74
2023/09/16 13:05:50;;;;;;;3.58;2.80;;;27.60;87.50;;;;;;5021856;28;20374;-75
2023/09/16 13:08:37;;;;;;;4.07;2.42;;;27.80;88.80;;;;;;5034482;28;20045;-75
2023/09/16 13:11:23;;;;;;;4.88;2.60;;;28.00;88.60;;;;;;5015220;28;20056;-74
2023/09/16 13:14:11;;;;;;;3.47;2.33;;;28.20;87.20;;;;;;5016052;28;20050;-74
2023/09/16 13:16:57;;;;;;;5.68;2.85;;;28.40;85.40;;;;;;5000167;28;20052;-75
2023/09/16 13:19:43;;;;;;;4.75;2.30;;;28.60;82.20;;;;;;5010152;28;20480;-74
2023/09/16 13:22:29;;;;;;;4.85;2.08;;;28.60;85.10;;;;;;5037604;28;20040;-75
2023/09/16 13:25:29;;;;;;;4.70;2.35;;;28.90;84.90;;;;;;5014735;28;20042;-75
2023/09/16 13:28:18;;;;;;;5.63;2.55;;;29.10;84.50;;;;;;5037839;28;20029;-75
2023/09/16 13:31:04;;;;;;;4.63;2.38;;;29.20;82.00;;;;;;5014992;28;20052;-74
2023/09/16 13:34:00;;;;;;;2.67;1.98;;;28.80;82.00;;;;;;4998675;28;20049;-74
2023/09/16 13:36:46;;;;;;;3.10;2.13;;;29.20;81.30;;;;;;5024800;28;20041;-74
2023/09/16 13:39:48;;;;;;;3.92;2.35;;;29.40;82.40;;;;;;5013390;28;20826;-74
2023/09/16 13:42:34;;;;;;;5.22;2.70;;;29.50;82.60;;;;;;5029270;28;20481;-74
2023/09/16 13:45:20;;;;;;;4.18;2.00;;;29.50;81.40;;;;;;5008324;28;20048;-74
2023/09/16 13:48:09;;;;;;;3.22;2.00;;;29.40;81.10;;;;;;5032774;28;20139;-74
2023/09/16 13:50:55;;;;;;;3.97;2.08;;;;;;;;;;5027565;28;20084;-74
2023/09/16 13:53:44;;;;;;;4.05;2.40;;;29.30;76.60;;;;;;5040705;28;20041;-75
2023/09/16 13:56:30;;;;;;;3.20;2.17;;;29.40;78.30;;;;;;5032620;28;20107;-74
2023/09/16 13:59:16;;;;;;;3.15;2.30;;;29.40;79.50;;;;;;5025339;28;20760;-75
2023/09/16 14:02:02;;;;;;;4.78;2.15;;;29.40;76.60;;;;;;5034907;28;20036;-73
2023/09/16 14:04:49;;;;;;;2.90;1.85;;;29.30;77.80;;;;;;5047082;28;20588;-73
2023/09/16 14:07:35;;;;;;;3.63;2.35;;;29.40;77.50;;;;;;5003623;28;20038;-73
2023/09/16 14:10:26;;;;;;;3.72;1.83;;;29.20;75.80;;;;;;4994881;28;20041;-73
2023/09/16 14:13:12;;;;;;;3.47;1.80;;;29.10;76.00;;;;;;4980693;28;20557;-73
2023/09/16 14:15:58;;;;;;;3.55;1.85;;;29.10;74.90;;;;;;4997271;28;20343;-72
2023/09/16 14:18:44;;;;;;;2.50;1.80;;;29.10;76.00;;;;;;4992472;28;20052;-72
2023/09/16 14:21:30;;;;;;;4.10;2.00;;;28.80;75.50;;;;;;5029642;28;20816;-73
2023/09/16 14:24:16;;;;;;;3.58;2.00;;;28.60;75.80;;;;;;5039909;28;20049;-73
2023/09/16 14:27:02;;;;;;;2.75;1.90;;;28.40;76.20;;;;;;4998156;28;20348;-73
2023/09/16 14:29:49;;;;;;;5.60;2.17;;;28.20;76.60;;;;;;5011002;28;20124;-73
2023/09/16 14:32:35;;;;;;;2.88;1.80;;;28.20;77.10;;;;;;5002229;28;20040;-73
2023/09/16 14:35:21;;;;;;;3.40;1.90;;;28.20;78.20;;;;;;5030326;28;20455;-72
2023/09/16 14:38:07;;;;;;;4.60;2.20;;;28.20;78.60;;;;;;4991597;28;20047;-73
2023/09/16 14:40:53;;;;;;;3.10;2.20;;;28.30;78.10;;;;;;5011496;28;20491;-72